OCN317 GCRR-EDDM
Flight info
| Callsign | OCN317 |
|---|---|
| Flight time | N/A |
| Altitude | 36000 |
| Route | KORAL UG5 SONSO DCT ADUBI N871 VJF N10 HIJ DCT CRISA DCT INPAN DCT VTB DCT PALIO DCT SEGRE DCT YAKXU DCT RONNY DCT TOPTU DCT TOU DCT GAI DCT MEN DCT NINUN DCT LATAM DCT ETREK DCT LTP DCT SOPLO DCT OMASI DCT KINNI DCT LAMUR DCT KORED DCT NUNRI T103 BETOS BETOS1A |
| Aircraft | A320/M-SDE2E3FGIJ1LORWXYZ/HB1 |
Departure
| Time | 2026-05-04 15:05 |
|---|---|
| Airport | César Manrique-Lanzarote Airport (GCRR) |
Arrival
| Time | N/A |
|---|---|
| Airport | Munich Airport (EDDM) |
| Time | Latitude | Longitude | Altitude | Speed | Heading |
|---|---|---|---|---|---|
| 2026-05-04 14:37 | 28.95013 | -13.60756 | 0 ft | 0 kts | 296° |
| 2026-05-04 14:56 | 28.95008 | -13.60745 | 49 ft | 4 kts | 296° |
| 2026-05-04 14:56 | 28.94996 | -13.60717 | 46 ft | 3 kts | 296° |
| 2026-05-04 14:57 | 28.94987 | -13.60694 | 48 ft | 4 kts | 278° |
| 2026-05-04 14:57 | 28.94989 | -13.60665 | 50 ft | 4 kts | 247° |
| 2026-05-04 14:57 | 28.95003 | -13.60641 | 47 ft | 3 kts | 209° |
| 2026-05-04 14:57 | 28.95007 | -13.60639 | 48 ft | 0 kts | 206° |
| 2026-05-04 14:59 | 28.95005 | -13.60639 | 47 ft | 2 kts | 206° |
| 2026-05-04 15:00 | 28.94963 | -13.60663 | 50 ft | 11 kts | 206° |
| 2026-05-04 15:00 | 28.94890 | -13.60631 | 50 ft | 16 kts | 116° |
| 2026-05-04 15:00 | 28.94798 | -13.60586 | 49 ft | 19 kts | 210° |
| 2026-05-04 15:01 | 28.94566 | -13.60718 | 41 ft | 20 kts | 206° |
| 2026-05-04 15:01 | 28.94430 | -13.60796 | 32 ft | 23 kts | 208° |
| 2026-05-04 15:01 | 28.94290 | -13.60877 | 29 ft | 22 kts | 206° |
| 2026-05-04 15:01 | 28.94159 | -13.60949 | 27 ft | 20 kts | 205° |
| 2026-05-04 15:02 | 28.94038 | -13.61022 | 28 ft | 19 kts | 207° |
| 2026-05-04 15:02 | 28.93924 | -13.61088 | 24 ft | 18 kts | 207° |
| 2026-05-04 15:02 | 28.93818 | -13.61150 | 24 ft | 16 kts | 207° |
| 2026-05-04 15:02 | 28.93722 | -13.61205 | 23 ft | 15 kts | 206° |
| 2026-05-04 15:03 | 28.93671 | -13.61219 | 23 ft | 6 kts | 162° |
| 2026-05-04 15:03 | 28.93642 | -13.61183 | 24 ft | 9 kts | 120° |
| 2026-05-04 15:03 | 28.93611 | -13.61106 | 26 ft | 11 kts | 99° |
| 2026-05-04 15:03 | 28.93644 | -13.61039 | 24 ft | 9 kts | 35° |
| 2026-05-04 15:04 | 28.93683 | -13.61025 | 26 ft | 7 kts | 18° |
| 2026-05-04 15:04 | 28.93873 | -13.60910 | 27 ft | 66 kts | 29° |
| 2026-05-04 15:04 | 28.94477 | -13.60565 | 35 ft | 125 kts | 26° |
| 2026-05-04 15:04 | 28.95359 | -13.60042 | 309 ft | 149 kts | 30° |
| 2026-05-04 15:05 | 28.96260 | -13.59434 | 983 ft | 152 kts | 39° |
| 2026-05-04 15:05 | 28.97117 | -13.58711 | 1553 ft | 158 kts | 37° |
| 2026-05-04 15:05 | 28.98056 | -13.57899 | 1828 ft | 180 kts | 37° |
| 2026-05-04 15:05 | 28.99123 | -13.56981 | 2119 ft | 204 kts | 36° |
| 2026-05-04 15:06 | 29.00331 | -13.55950 | 2547 ft | 228 kts | 37° |
| 2026-05-04 15:06 | 29.01550 | -13.54656 | 3105 ft | 248 kts | 47° |
| 2026-05-04 15:06 | 29.02677 | -13.53118 | 3898 ft | 257 kts | 50° |
| 2026-05-04 15:07 | 29.04951 | -13.49763 | 5328 ft | 274 kts | 50° |
| 2026-05-04 15:07 | 29.05587 | -13.48829 | 5740 ft | 278 kts | 49° |
| 2026-05-04 15:07 | 29.05605 | -13.48804 | 5762 ft | 278 kts | 49° |
| 2026-05-04 15:07 | 29.06815 | -13.47053 | 6543 ft | 283 kts | 49° |
| 2026-05-04 15:08 | 29.08063 | -13.45274 | 7221 ft | 290 kts | 48° |
| 2026-05-04 15:08 | 29.09370 | -13.43487 | 7914 ft | 295 kts | 41° |
| 2026-05-04 15:08 | 29.11074 | -13.42216 | 8569 ft | 294 kts | 21° |
| 2026-05-04 15:08 | 29.12940 | -13.41221 | 9281 ft | 299 kts | 19° |
| 2026-05-04 15:09 | 29.14848 | -13.40225 | 9994 ft | 303 kts | 19° |
| 2026-05-04 15:09 | 29.16774 | -13.39222 | 10385 ft | 320 kts | 19° |
| 2026-05-04 15:09 | 29.18869 | -13.38129 | 10568 ft | 343 kts | 20° |
| 2026-05-04 15:10 | 29.23314 | -13.35733 | 11650 ft | 361 kts | 25° |
| 2026-05-04 15:10 | 29.25309 | -13.33931 | 12270 ft | 373 kts | 46° |
| 2026-05-04 15:10 | 29.28454 | -13.29097 | 13565 ft | 382 kts | 51° |
| 2026-05-04 15:11 | 29.30016 | -13.26613 | 14163 ft | 386 kts | 52° |
| 2026-05-04 15:11 | 29.31591 | -13.24104 | 14717 ft | 390 kts | 52° |
| 2026-05-04 15:11 | 29.33182 | -13.21569 | 15263 ft | 394 kts | 52° |
| 2026-05-04 15:11 | 29.34791 | -13.19013 | 15812 ft | 397 kts | 51° |
| 2026-05-04 15:12 | 29.36440 | -13.16396 | 16371 ft | 401 kts | 51° |
| 2026-05-04 15:12 | 29.38083 | -13.13791 | 16906 ft | 405 kts | 51° |
| 2026-05-04 15:12 | 29.39742 | -13.11164 | 17450 ft | 409 kts | 51° |
| 2026-05-04 15:12 | 29.41416 | -13.08512 | 17980 ft | 412 kts | 51° |
| 2026-05-04 15:13 | 29.43107 | -13.05831 | 18486 ft | 416 kts | 51° |
| 2026-05-04 15:13 | 29.44773 | -13.03187 | 18933 ft | 420 kts | 52° |
| 2026-05-04 15:13 | 29.46524 | -13.00404 | 19379 ft | 423 kts | 52° |
| 2026-05-04 15:13 | 29.48254 | -12.97655 | 19837 ft | 427 kts | 51° |
| 2026-05-04 15:14 | 29.49997 | -12.94882 | 20282 ft | 430 kts | 51° |
| 2026-05-04 15:14 | 29.51724 | -12.92133 | 20708 ft | 433 kts | 52° |
| 2026-05-04 15:14 | 29.53492 | -12.89313 | 21132 ft | 437 kts | 52° |
| 2026-05-04 15:14 | 29.55273 | -12.86468 | 21566 ft | 440 kts | 52° |
| 2026-05-04 15:15 | 29.57066 | -12.83601 | 21988 ft | 444 kts | 52° |
| 2026-05-04 15:15 | 29.58872 | -12.80714 | 22392 ft | 447 kts | 52° |
| 2026-05-04 15:15 | 29.60690 | -12.77804 | 22804 ft | 450 kts | 51° |
| 2026-05-04 15:16 | 29.64369 | -12.71923 | 23584 ft | 456 kts | 51° |
| 2026-05-04 15:16 | 29.66183 | -12.69018 | 23908 ft | 460 kts | 51° |
| 2026-05-04 15:16 | 29.69980 | -12.62935 | 24573 ft | 465 kts | 51° |
| 2026-05-04 15:17 | 29.71870 | -12.59900 | 24882 ft | 468 kts | 51° |
| 2026-05-04 15:17 | 29.75653 | -12.53740 | 25511 ft | 474 kts | 52° |
| 2026-05-04 15:17 | 29.77517 | -12.50594 | 25823 ft | 477 kts | 53° |
| 2026-05-04 15:18 | 29.79372 | -12.47413 | 26126 ft | 480 kts | 53° |
| 2026-05-04 15:18 | 29.81234 | -12.44214 | 26436 ft | 482 kts | 53° |
| 2026-05-04 15:18 | 29.83111 | -12.41001 | 26741 ft | 485 kts | 53° |
| 2026-05-04 15:19 | 29.86912 | -12.34540 | 27341 ft | 490 kts | 53° |
| 2026-05-04 15:19 | 29.88825 | -12.31298 | 27634 ft | 492 kts | 53° |
| 2026-05-04 15:19 | 29.92687 | -12.24739 | 28218 ft | 497 kts | 53° |
| 2026-05-04 15:20 | 29.94632 | -12.21431 | 28510 ft | 499 kts | 53° |
| 2026-05-04 15:20 | 29.96584 | -12.18107 | 28797 ft | 502 kts | 53° |
| 2026-05-04 15:20 | 29.98547 | -12.14763 | 29068 ft | 504 kts | 53° |
| 2026-05-04 15:20 | 30.00620 | -12.11507 | 29339 ft | 503 kts | 46° |
| 2026-05-04 15:21 | 30.03045 | -12.08610 | 29605 ft | 501 kts | 37° |
| 2026-05-04 15:21 | 30.05735 | -12.06073 | 29865 ft | 500 kts | 33° |
| 2026-05-04 15:21 | 30.11222 | -12.01079 | 30338 ft | 504 kts | 33° |
| 2026-05-04 15:22 | 30.13978 | -11.98566 | 30551 ft | 506 kts | 33° |
| 2026-05-04 15:22 | 30.16744 | -11.96039 | 30770 ft | 508 kts | 33° |
| 2026-05-04 15:22 | 30.22274 | -11.90974 | 31357 ft | 507 kts | 33° |
| 2026-05-04 15:23 | 30.25039 | -11.88438 | 31629 ft | 507 kts | 33° |
| 2026-05-04 15:23 | 30.27802 | -11.85903 | 31899 ft | 507 kts | 33° |
| 2026-05-04 15:23 | 30.30569 | -11.83362 | 32173 ft | 508 kts | 33° |
| 2026-05-04 15:23 | 30.33337 | -11.80822 | 32461 ft | 508 kts | 33° |
| 2026-05-04 15:24 | 30.38833 | -11.75781 | 32979 ft | 509 kts | 33° |
| 2026-05-04 15:24 | 30.44371 | -11.70674 | 33508 ft | 510 kts | 33° |
| 2026-05-04 15:25 | 30.47146 | -11.68110 | 33757 ft | 510 kts | 32° |
| 2026-05-04 15:25 | 30.49922 | -11.65551 | 34028 ft | 510 kts | 32° |
| 2026-05-04 15:25 | 30.52702 | -11.62990 | 34262 ft | 510 kts | 32° |
| 2026-05-04 15:26 | 30.58251 | -11.57865 | 34736 ft | 510 kts | 32° |
| 2026-05-04 15:26 | 30.61024 | -11.55302 | 34980 ft | 509 kts | 32° |
| 2026-05-04 15:26 | 30.66591 | -11.50150 | 35433 ft | 508 kts | 32° |
| 2026-05-04 15:27 | 30.69345 | -11.47589 | 35658 ft | 507 kts | 32° |
| 2026-05-04 15:27 | 30.74849 | -11.42463 | 36030 ft | 507 kts | 32° |
| 2026-05-04 15:28 | 30.83077 | -11.34816 | 36068 ft | 503 kts | 32° |
| 2026-05-04 15:29 | 30.91270 | -11.27179 | 36068 ft | 503 kts | 32° |
| 2026-05-04 15:30 | 31.10300 | -11.09385 | 36079 ft | 502 kts | 32° |
| 2026-05-04 15:31 | 31.18456 | -11.01724 | 36082 ft | 501 kts | 32° |
| 2026-05-04 15:32 | 31.32007 | -10.88943 | 36081 ft | 500 kts | 32° |
| 2026-05-04 15:34 | 31.45516 | -10.76184 | 36083 ft | 499 kts | 32° |
| 2026-05-04 15:34 | 31.53604 | -10.68517 | 36080 ft | 498 kts | 32° |
| 2026-05-04 15:35 | 31.61674 | -10.60831 | 36080 ft | 498 kts | 33° |
| 2026-05-04 15:36 | 31.69733 | -10.53140 | 36086 ft | 497 kts | 33° |
| 2026-05-04 15:36 | 31.75100 | -10.48020 | 36082 ft | 497 kts | 33° |
| 2026-05-04 15:37 | 31.80461 | -10.42895 | 36081 ft | 496 kts | 33° |
| 2026-05-04 15:37 | 31.85814 | -10.37773 | 36081 ft | 496 kts | 33° |
| 2026-05-04 15:38 | 31.91159 | -10.32648 | 36083 ft | 495 kts | 33° |
| 2026-05-04 15:38 | 31.96500 | -10.27524 | 36081 ft | 495 kts | 33° |
| 2026-05-04 15:39 | 32.01783 | -10.22432 | 36079 ft | 495 kts | 33° |
| 2026-05-04 15:40 | 32.09765 | -10.14725 | 36076 ft | 494 kts | 33° |
| 2026-05-04 15:40 | 32.15079 | -10.09597 | 36077 ft | 493 kts | 33° |
| 2026-05-04 15:41 | 32.20389 | -10.04462 | 36078 ft | 493 kts | 33° |
| 2026-05-04 15:41 | 32.24831 | -10.00157 | 36074 ft | 493 kts | 33° |
| 2026-05-04 15:42 | 32.30130 | -9.95022 | 36084 ft | 492 kts | 33° |
| 2026-05-04 15:42 | 32.35424 | -9.89877 | 36080 ft | 492 kts | 33° |
| 2026-05-04 15:43 | 32.40708 | -9.84736 | 36084 ft | 492 kts | 34° |
| 2026-05-04 15:43 | 32.45991 | -9.79585 | 36082 ft | 492 kts | 34° |
| 2026-05-04 15:44 | 32.51268 | -9.74432 | 36084 ft | 491 kts | 34° |
| 2026-05-04 15:44 | 32.56490 | -9.69319 | 36084 ft | 491 kts | 34° |
| 2026-05-04 15:45 | 32.61760 | -9.64155 | 36090 ft | 491 kts | 34° |
| 2026-05-04 15:45 | 32.67029 | -9.58999 | 36089 ft | 491 kts | 34° |
| 2026-05-04 15:46 | 32.72286 | -9.53827 | 36093 ft | 491 kts | 34° |
| 2026-05-04 15:46 | 32.77541 | -9.48646 | 36093 ft | 491 kts | 34° |
| 2026-05-04 15:47 | 32.82796 | -9.43471 | 36093 ft | 491 kts | 34° |
| 2026-05-04 15:47 | 32.88083 | -9.38252 | 36098 ft | 491 kts | 34° |
| 2026-05-04 15:48 | 32.93327 | -9.33062 | 36099 ft | 490 kts | 34° |
| 2026-05-04 15:48 | 33.01196 | -9.25284 | 36089 ft | 490 kts | 34° |
| 2026-05-04 15:49 | 33.06076 | -9.20434 | 36098 ft | 490 kts | 34° |
| 2026-05-04 15:49 | 33.11307 | -9.15221 | 36093 ft | 490 kts | 34° |
| 2026-05-04 15:50 | 33.16539 | -9.10009 | 36091 ft | 490 kts | 34° |
| 2026-05-04 15:50 | 33.21772 | -9.04796 | 36089 ft | 490 kts | 34° |
| 2026-05-04 15:51 | 33.27002 | -8.99573 | 36087 ft | 490 kts | 35° |
| 2026-05-04 15:51 | 33.32227 | -8.94347 | 36084 ft | 490 kts | 35° |
| 2026-05-04 15:52 | 33.37456 | -8.89110 | 36087 ft | 490 kts | 35° |
| 2026-05-04 15:52 | 33.42683 | -8.83857 | 36087 ft | 491 kts | 35° |
| 2026-05-04 15:53 | 33.47914 | -8.78593 | 36096 ft | 491 kts | 35° |
| 2026-05-04 15:53 | 33.53146 | -8.73325 | 36098 ft | 491 kts | 35° |
| 2026-05-04 15:54 | 33.58307 | -8.68113 | 36106 ft | 492 kts | 35° |
| 2026-05-04 15:54 | 33.63566 | -8.62801 | 36107 ft | 492 kts | 35° |
| 2026-05-04 15:55 | 33.68805 | -8.57502 | 36109 ft | 492 kts | 35° |
| 2026-05-04 15:55 | 33.74080 | -8.52165 | 36107 ft | 492 kts | 35° |
| 2026-05-04 15:56 | 33.79316 | -8.46851 | 36107 ft | 493 kts | 35° |
| 2026-05-04 15:56 | 33.84545 | -8.41530 | 36108 ft | 493 kts | 35° |
| 2026-05-04 15:57 | 33.89773 | -8.36195 | 36106 ft | 493 kts | 35° |
| 2026-05-04 15:57 | 33.95002 | -8.30849 | 36102 ft | 493 kts | 35° |
| 2026-05-04 15:58 | 34.00230 | -8.25496 | 36102 ft | 493 kts | 35° |
| 2026-05-04 15:58 | 34.05464 | -8.20138 | 36103 ft | 494 kts | 35° |
| 2026-05-04 15:59 | 34.10657 | -8.14825 | 36103 ft | 494 kts | 35° |
| 2026-05-04 15:59 | 34.15889 | -8.09453 | 36100 ft | 494 kts | 35° |
| 2026-05-04 16:00 | 34.21118 | -8.04061 | 36099 ft | 494 kts | 35° |
| 2026-05-04 16:00 | 34.26345 | -7.98670 | 36096 ft | 494 kts | 35° |
| 2026-05-04 16:01 | 34.31577 | -7.93267 | 36098 ft | 494 kts | 35° |
| 2026-05-04 16:01 | 34.36810 | -7.87866 | 36085 ft | 495 kts | 35° |
| 2026-05-04 16:02 | 34.42041 | -7.82454 | 36084 ft | 495 kts | 35° |
| 2026-05-04 16:03 | 34.49852 | -7.74337 | 36094 ft | 495 kts | 35° |
| 2026-05-04 16:03 | 34.55082 | -7.68898 | 36091 ft | 496 kts | 35° |
| 2026-05-04 16:04 | 34.60312 | -7.63444 | 36093 ft | 496 kts | 35° |
| 2026-05-04 16:04 | 34.68120 | -7.55280 | 36098 ft | 497 kts | 35° |
| 2026-05-04 16:05 | 34.73361 | -7.49800 | 36107 ft | 497 kts | 35° |
| 2026-05-04 16:06 | 34.81216 | -7.41562 | 36105 ft | 497 kts | 34° |
| 2026-05-04 16:07 | 34.91684 | -7.30548 | 36105 ft | 497 kts | 34° |
| 2026-05-04 16:08 | 35.02137 | -7.19520 | 36102 ft | 497 kts | 34° |
| 2026-05-04 16:09 | 35.15135 | -7.05720 | 36094 ft | 497 kts | 34° |
| 2026-05-04 16:10 | 35.25497 | -6.94683 | 36091 ft | 497 kts | 35° |
| 2026-05-04 16:11 | 35.35958 | -6.83514 | 36088 ft | 497 kts | 34° |
| 2026-05-04 16:12 | 35.51579 | -6.66749 | 36079 ft | 497 kts | 34° |
| 2026-05-04 16:13 | 35.61983 | -6.55544 | 36077 ft | 498 kts | 34° |
| 2026-05-04 16:14 | 35.71460 | -6.45292 | 36071 ft | 498 kts | 35° |
| 2026-05-04 16:16 | 35.84534 | -6.31370 | 36068 ft | 491 kts | 27° |
| 2026-05-04 16:17 | 35.98605 | -6.19356 | 36058 ft | 491 kts | 27° |
| 2026-05-04 16:18 | 36.09829 | -6.09715 | 36052 ft | 491 kts | 27° |
| 2026-05-04 16:19 | 36.23963 | -5.98395 | 36052 ft | 476 kts | 12° |
| 2026-05-04 16:20 | 36.33358 | -5.95897 | 36046 ft | 456 kts | 358° |
| 2026-05-04 16:20 | 36.39658 | -5.94787 | 36047 ft | 458 kts | 358° |
| 2026-05-04 16:22 | 36.55424 | -5.91957 | 36058 ft | 458 kts | 358° |
| 2026-05-04 16:23 | 36.74425 | -5.88576 | 36059 ft | 459 kts | 358° |
| 2026-05-04 16:25 | 36.93348 | -5.85173 | 36050 ft | 460 kts | 359° |
| 2026-05-04 16:26 | 37.15520 | -5.81175 | 36046 ft | 460 kts | 359° |
| 2026-05-04 16:28 | 37.31370 | -5.78291 | 36025 ft | 460 kts | 359° |
| 2026-05-04 16:29 | 37.53046 | -5.70008 | 36021 ft | 482 kts | 18° |
| 2026-05-04 16:31 | 37.68155 | -5.60868 | 36025 ft | 482 kts | 18° |
| 2026-05-04 16:32 | 37.86229 | -5.49842 | 36028 ft | 482 kts | 18° |
| 2026-05-04 16:33 | 37.98355 | -5.42417 | 36023 ft | 482 kts | 19° |
| 2026-05-04 16:34 | 38.07382 | -5.36866 | 36022 ft | 482 kts | 19° |
| 2026-05-04 16:35 | 38.25475 | -5.25726 | 36008 ft | 481 kts | 19° |
| 2026-05-04 16:36 | 38.34505 | -5.20119 | 36012 ft | 481 kts | 19° |
| 2026-05-04 16:37 | 38.43529 | -5.14524 | 36016 ft | 481 kts | 19° |
| 2026-05-04 16:38 | 38.54731 | -5.05082 | 36014 ft | 494 kts | 40° |
| 2026-05-04 16:39 | 38.66929 | -4.89760 | 36005 ft | 493 kts | 40° |
| 2026-05-04 16:40 | 38.76701 | -4.77431 | 36004 ft | 493 kts | 40° |
| 2026-05-04 16:41 | 38.88871 | -4.62002 | 36005 ft | 492 kts | 41° |
| 2026-05-04 16:43 | 39.00997 | -4.46555 | 36006 ft | 490 kts | 41° |
| 2026-05-04 16:43 | 39.08238 | -4.37274 | 36002 ft | 489 kts | 41° |
| 2026-05-04 16:45 | 39.22627 | -4.18784 | 35987 ft | 488 kts | 41° |
| 2026-05-04 16:46 | 39.34595 | -4.03307 | 35976 ft | 487 kts | 42° |
| 2026-05-04 16:47 | 39.44145 | -3.90888 | 35967 ft | 486 kts | 42° |
| 2026-05-04 16:48 | 39.52907 | -3.79484 | 35963 ft | 486 kts | 42° |
| 2026-05-04 16:49 | 39.62374 | -3.67081 | 35967 ft | 486 kts | 43° |
| 2026-05-04 16:50 | 39.71854 | -3.54614 | 35963 ft | 484 kts | 43° |
| 2026-05-04 16:51 | 39.79129 | -3.45552 | 35965 ft | 480 kts | 32° |
| 2026-05-04 16:52 | 39.90202 | -3.36019 | 35960 ft | 477 kts | 30° |
| 2026-05-04 16:53 | 39.98538 | -3.28838 | 35964 ft | 477 kts | 30° |
| 2026-05-04 16:54 | 40.09591 | -3.19288 | 35962 ft | 476 kts | 30° |
| 2026-05-04 16:55 | 40.26102 | -3.04947 | 35966 ft | 476 kts | 30° |
| 2026-05-04 16:56 | 40.39777 | -2.93013 | 35959 ft | 475 kts | 31° |
| 2026-05-04 16:57 | 40.48091 | -2.85719 | 35961 ft | 475 kts | 31° |
| 2026-05-04 16:58 | 40.59065 | -2.76060 | 35959 ft | 474 kts | 31° |
| 2026-05-04 17:00 | 40.75461 | -2.61560 | 35964 ft | 475 kts | 31° |
| 2026-05-04 17:01 | 40.89193 | -2.49352 | 35963 ft | 475 kts | 32° |
| 2026-05-04 17:02 | 41.00150 | -2.39558 | 35954 ft | 476 kts | 32° |
| 2026-05-04 17:03 | 41.08149 | -2.31741 | 35958 ft | 477 kts | 38° |
| 2026-05-04 17:03 | 41.15815 | -2.23294 | 35956 ft | 478 kts | 38° |
| 2026-05-04 17:04 | 41.26057 | -2.12354 | 35948 ft | 478 kts | 37° |
| 2026-05-04 17:05 | 41.36436 | -2.01288 | 35952 ft | 478 kts | 37° |
| 2026-05-04 17:06 | 41.44181 | -1.92943 | 35950 ft | 477 kts | 38° |
| 2026-05-04 17:07 | 41.51087 | -1.85489 | 35957 ft | 477 kts | 38° |
| 2026-05-04 17:07 | 41.57084 | -1.79014 | 35960 ft | 477 kts | 38° |
| 2026-05-04 17:08 | 41.64854 | -1.70598 | 35965 ft | 477 kts | 38° |
| 2026-05-04 17:09 | 41.70007 | -1.64990 | 35969 ft | 478 kts | 38° |
| 2026-05-04 17:09 | 41.75128 | -1.59424 | 35971 ft | 478 kts | 38° |
| 2026-05-04 17:10 | 41.88026 | -1.45347 | 35967 ft | 479 kts | 38° |
| 2026-05-04 17:11 | 41.93182 | -1.39680 | 35954 ft | 479 kts | 38° |
| 2026-05-04 17:12 | 42.00918 | -1.31174 | 35956 ft | 479 kts | 38° |
| 2026-05-04 17:13 | 42.13805 | -1.16922 | 35951 ft | 480 kts | 38° |
| 2026-05-04 17:14 | 42.23794 | -1.05839 | 35956 ft | 480 kts | 38° |
| 2026-05-04 17:15 | 42.31526 | -0.97226 | 35958 ft | 480 kts | 38° |
| 2026-05-04 17:16 | 42.41840 | -0.85640 | 35951 ft | 481 kts | 43° |
| 2026-05-04 17:17 | 42.50252 | -0.71594 | 35948 ft | 481 kts | 53° |
| 2026-05-04 17:18 | 42.58425 | -0.57208 | 35944 ft | 482 kts | 53° |
| 2026-05-04 17:19 | 42.66546 | -0.42795 | 35952 ft | 483 kts | 53° |
| 2026-05-04 17:20 | 42.74700 | -0.28262 | 35969 ft | 484 kts | 53° |
| 2026-05-04 17:20 | 42.80154 | -0.18509 | 35981 ft | 484 kts | 52° |
| 2026-05-04 17:21 | 42.88667 | -0.04332 | 35997 ft | 483 kts | 50° |
| 2026-05-04 17:22 | 42.92967 | 0.02707 | 36060 ft | 483 kts | 51° |
| 2026-05-04 17:23 | 43.01356 | 0.16774 | 35976 ft | 477 kts | 52° |
| 2026-05-04 17:24 | 43.07630 | 0.27345 | 35977 ft | 477 kts | 52° |
| 2026-05-04 17:25 | 43.15964 | 0.41415 | 35984 ft | 478 kts | 52° |
| 2026-05-04 17:26 | 43.24306 | 0.55580 | 35978 ft | 477 kts | 52° |
| 2026-05-04 17:27 | 43.34721 | 0.73332 | 35968 ft | 477 kts | 53° |
| 2026-05-04 17:28 | 43.43061 | 0.87624 | 35958 ft | 478 kts | 53° |
| 2026-05-04 17:29 | 43.55455 | 1.09011 | 35945 ft | 477 kts | 53° |
| 2026-05-04 17:31 | 43.65783 | 1.26947 | 35939 ft | 478 kts | 54° |
| 2026-05-04 17:32 | 43.75723 | 1.45143 | 35940 ft | 476 kts | 57° |
| 2026-05-04 17:33 | 43.83533 | 1.59955 | 35941 ft | 476 kts | 56° |
| 2026-05-04 17:34 | 43.91349 | 1.74694 | 35938 ft | 476 kts | 56° |
| 2026-05-04 17:35 | 44.00988 | 1.93449 | 35940 ft | 476 kts | 58° |
| 2026-05-04 17:36 | 44.04715 | 2.01045 | 35937 ft | 476 kts | 58° |
| 2026-05-04 17:36 | 44.08458 | 2.08634 | 35934 ft | 476 kts | 57° |
| 2026-05-04 17:37 | 44.12221 | 2.16212 | 35937 ft | 476 kts | 57° |
| 2026-05-04 17:37 | 44.15982 | 2.23807 | 35933 ft | 476 kts | 57° |
| 2026-05-04 17:38 | 44.19737 | 2.31423 | 35943 ft | 477 kts | 57° |
| 2026-05-04 17:38 | 44.23490 | 2.39059 | 35937 ft | 477 kts | 58° |
| 2026-05-04 17:39 | 44.29070 | 2.50454 | 35931 ft | 477 kts | 58° |
| 2026-05-04 17:39 | 44.32806 | 2.58117 | 35928 ft | 478 kts | 58° |
| 2026-05-04 17:40 | 44.36541 | 2.65797 | 35930 ft | 478 kts | 58° |
| 2026-05-04 17:40 | 44.40281 | 2.73500 | 35936 ft | 479 kts | 58° |
| 2026-05-04 17:41 | 44.44014 | 2.81213 | 35937 ft | 479 kts | 58° |
| 2026-05-04 17:41 | 44.47737 | 2.88939 | 35931 ft | 479 kts | 58° |
| 2026-05-04 17:42 | 44.51464 | 2.96674 | 35935 ft | 479 kts | 58° |
| 2026-05-04 17:42 | 44.55190 | 3.04415 | 35938 ft | 479 kts | 58° |
| 2026-05-04 17:43 | 44.58926 | 3.12224 | 35945 ft | 479 kts | 58° |
| 2026-05-04 17:43 | 44.62551 | 3.20063 | 35943 ft | 478 kts | 61° |
| 2026-05-04 17:44 | 44.65799 | 3.28123 | 35944 ft | 478 kts | 64° |
| 2026-05-04 17:44 | 44.68943 | 3.36355 | 35948 ft | 478 kts | 64° |
| 2026-05-04 17:45 | 44.72155 | 3.44548 | 35952 ft | 479 kts | 63° |
| 2026-05-04 17:45 | 44.75426 | 3.52712 | 35951 ft | 480 kts | 63° |
| 2026-05-04 17:46 | 44.78697 | 3.60900 | 35952 ft | 480 kts | 63° |
| 2026-05-04 17:46 | 44.81952 | 3.69108 | 35968 ft | 480 kts | 63° |
| 2026-05-04 17:47 | 44.85195 | 3.77334 | 35969 ft | 480 kts | 63° |
| 2026-05-04 17:47 | 44.88438 | 3.85571 | 35971 ft | 480 kts | 63° |
| 2026-05-04 17:48 | 44.91675 | 3.93818 | 35975 ft | 480 kts | 63° |
| 2026-05-04 17:48 | 44.94903 | 4.02065 | 35977 ft | 480 kts | 63° |
| 2026-05-04 17:49 | 44.98102 | 4.10261 | 35982 ft | 480 kts | 63° |
| 2026-05-04 17:49 | 45.01313 | 4.18530 | 35991 ft | 480 kts | 63° |
| 2026-05-04 17:50 | 45.04517 | 4.26807 | 36003 ft | 480 kts | 63° |
| 2026-05-04 17:50 | 45.07728 | 4.35094 | 36009 ft | 480 kts | 63° |
| 2026-05-04 17:51 | 45.10947 | 4.43438 | 36015 ft | 480 kts | 63° |
| 2026-05-04 17:51 | 45.14138 | 4.51746 | 36031 ft | 480 kts | 63° |
| 2026-05-04 17:52 | 45.17316 | 4.60054 | 36029 ft | 480 kts | 63° |
| 2026-05-04 17:52 | 45.20491 | 4.68375 | 36035 ft | 479 kts | 63° |
| 2026-05-04 17:53 | 45.23665 | 4.76692 | 36037 ft | 479 kts | 63° |
| 2026-05-04 17:53 | 45.26293 | 4.83596 | 36041 ft | 479 kts | 63° |
| 2026-05-04 17:54 | 45.29416 | 4.91847 | 36032 ft | 478 kts | 63° |
| 2026-05-04 17:54 | 45.32557 | 5.00173 | 36021 ft | 478 kts | 63° |
| 2026-05-04 17:55 | 45.35692 | 5.08507 | 36008 ft | 478 kts | 63° |
| 2026-05-04 17:55 | 45.38819 | 5.16839 | 35994 ft | 478 kts | 63° |
| 2026-05-04 17:56 | 45.41963 | 5.25242 | 35991 ft | 478 kts | 63° |
| 2026-05-04 17:56 | 45.45083 | 5.33596 | 35989 ft | 478 kts | 64° |
| 2026-05-04 17:57 | 45.48316 | 5.41860 | 35994 ft | 479 kts | 56° |
| 2026-05-04 17:57 | 45.52781 | 5.48857 | 36004 ft | 478 kts | 41° |
| 2026-05-04 17:58 | 45.57759 | 5.55174 | 36023 ft | 479 kts | 41° |
| 2026-05-04 17:58 | 45.62720 | 5.61514 | 36023 ft | 479 kts | 41° |
| 2026-05-04 17:59 | 45.67638 | 5.67824 | 36018 ft | 479 kts | 41° |